Observation data for Morton on 07/16/2019      Previous  Date  Next       Current Mesonet Observations  Soil Data  Daily Summary Page  Observations in Plain Language
KMNS 160500Z 16007KT 27/10 A3004 RMK A01 T02670099  RH  036%=      5-min Rain = 0
KMNS 160505Z 16007KT 27/10 A3004 RMK A01 T02680098  RH  036%=      5-min Rain = 0
KMNS 160510Z 16007KT 27/10 A3004 RMK A01 T02660099  RH  036%=      5-min Rain = 0
KMNS 160515Z 16007KT 26/10 A3004 RMK A01 T02640100  RH  037%=      5-min Rain = 0
KMNS 160520Z 16007KT 26/10 A3004 RMK A01 T02630100  RH  037%=      5-min Rain = 0
KMNS 160525Z 16008KT 26/10 A3004 RMK A01 T02630100  RH  037%=      5-min Rain = 0
KMNS 160530Z 17007KT 26/10 A3004 RMK A01 T02640100  RH  037%=      5-min Rain = 0
KMNS 160535Z 17007KT 26/10 A3004 RMK A01 T02630100  RH  037%=      5-min Rain = 0
KMNS 160540Z 17008KT 26/10 A3004 RMK A01 T02640101  RH  037%=      5-min Rain = 0
KMNS 160545Z 16009KT 27/10 A3004 RMK A01 T02660104  RH  037%=      5-min Rain = 0
KMNS 160550Z 16009KT 27/11 A3004 RMK A01 T02670107  RH  038%=      5-min Rain = 0
KMNS 160555Z 16009KT 27/11 A3004 RMK A01 T02660109  RH  039%=      5-min Rain = 0
KMNS 160600Z 16009KT 26/11 A3004 RMK A01 T02640110  RH  039%=      5-min Rain = 0
KMNS 160605Z 16008KT 26/11 A3004 RMK A01 T02620111  RH  040%=      5-min Rain = 0
KMNS 160610Z 16008KT 26/11 A3004 RMK A01 T02610112  RH  041%=      5-min Rain = 0
KMNS 160615Z 16008KT 26/11 A3004 RMK A01 T02600114  RH  042%=      5-min Rain = 0
KMNS 160620Z 16008KT 26/12 A3004 RMK A01 T02590115  RH  042%=      5-min Rain = 0
KMNS 160625Z 16008KT 26/12 A3004 RMK A01 T02580117  RH  043%=      5-min Rain = 0
KMNS 160630Z 15008KT 26/12 A3004 RMK A01 T02570119  RH  044%=      5-min Rain = 0
KMNS 160635Z 16008KT 26/12 A3004 RMK A01 T02570120  RH  044%=      5-min Rain = 0
KMNS 160640Z 16008KT 26/12 A3004 RMK A01 T02570121  RH  045%=      5-min Rain = 0
KMNS 160645Z 16008KT 26/12 A3004 RMK A01 T02570122  RH  045%=      5-min Rain = 0
KMNS 160650Z 16008KT 26/12 A3004 RMK A01 T02570123  RH  045%=      5-min Rain = 0
KMNS 160655Z 15008KT 26/12 A3004 RMK A01 T02560124  RH  046%=      5-min Rain = 0
KMNS 160700Z 16007KT 25/13 A3004 RMK A01 T02540125  RH  046%=      5-min Rain = 0
KMNS 160705Z 17007G12KT 25/13 A3004 RMK A01 T02530126  RH  047%=      5-min Rain = 0
KMNS 160710Z 16008KT 25/13 A3004 RMK A01 T02530127  RH  047%=      5-min Rain = 0
KMNS 160715Z 16008KT 25/13 A3004 RMK A01 T02530127  RH  047%=      5-min Rain = 0
KMNS 160720Z 16008KT 25/13 A3004 RMK A01 T02520127  RH  048%=      5-min Rain = 0
KMNS 160725Z 16008KT 25/13 A3004 RMK A01 T02520128  RH  048%=      5-min Rain = 0
KMNS 160730Z 16008KT 25/13 A3004 RMK A01 T02520128  RH  048%=      5-min Rain = 0
KMNS 160735Z 16008KT 25/13 A3004 RMK A01 T02500128  RH  048%=      5-min Rain = 0
KMNS 160740Z 16007KT 25/13 A3004 RMK A01 T02490129  RH  049%=      5-min Rain = 0
KMNS 160745Z 17006KT 25/13 A3004 RMK A01 T02480129  RH  049%=      5-min Rain = 0
KMNS 160750Z 17007KT 25/13 A3004 RMK A01 T02470129  RH  050%=      5-min Rain = 0
KMNS 160755Z 19007KT 25/13 A3004 RMK A01 T02450130  RH  051%=      5-min Rain = 0
KMNS 160800Z 19006KT 24/13 A3005 RMK A01 T02430131  RH  052%=      5-min Rain = 0
KMNS 160805Z 20005KT 24/13 A3005 RMK A01 T02400131  RH  053%=      5-min Rain = 0
KMNS 160810Z 20005KT 24/13 A3005 RMK A01 T02370132  RH  054%=      5-min Rain = 0
KMNS 160815Z 20005KT 24/13 A3005 RMK A01 T02350133  RH  055%=      5-min Rain = 0
KMNS 160820Z 19005KT 23/13 A3004 RMK A01 T02320134  RH  056%=      5-min Rain = 0
KMNS 160825Z 19005KT 23/13 A3004 RMK A01 T02300134  RH  057%=      5-min Rain = 0
KMNS 160830Z 19005KT 23/14 A3004 RMK A01 T02280135  RH  058%=      5-min Rain = 0
KMNS 160835Z 19006KT 23/14 A3004 RMK A01 T02260135  RH  059%=      5-min Rain = 0
KMNS 160840Z 19006KT 22/14 A3004 RMK A01 T02240135  RH  060%=      5-min Rain = 0
KMNS 160845Z 19006KT 22/14 A3003 RMK A01 T02240136  RH  060%=      5-min Rain = 0
KMNS 160850Z 19006KT 22/14 A3003 RMK A01 T02230136  RH  060%=      5-min Rain = 0
KMNS 160855Z 19006KT 22/14 A3003 RMK A01 T02220136  RH  061%=      5-min Rain = 0
KMNS 160900Z 19006KT 22/14 A3003 RMK A01 T02220136  RH  061%=      5-min Rain = 0
KMNS 160905Z 18006KT 22/14 A3003 RMK A01 T02220136  RH  060%=      5-min Rain = 0
KMNS 160910Z 18006KT 23/14 A3002 RMK A01 T02250136  RH  059%=      5-min Rain = 0
KMNS 160915Z 19006KT 22/14 A3002 RMK A01 T02240135  RH  060%=      5-min Rain = 0
KMNS 160920Z 19007KT 22/14 A3002 RMK A01 T02230136  RH  060%=      5-min Rain = 0
KMNS 160925Z 18007KT 22/14 A3002 RMK A01 T02230136  RH  060%=      5-min Rain = 0
KMNS 160930Z 18006KT 23/14 A3002 RMK A01 T02260136  RH  059%=      5-min Rain = 0
KMNS 160935Z 19007KT 23/14 A3002 RMK A01 T02260136  RH  059%=      5-min Rain = 0
KMNS 160940Z 19007KT 22/14 A3002 RMK A01 T02230136  RH  060%=      5-min Rain = 0
KMNS 160945Z 18007KT 22/14 A3002 RMK A01 T02230136  RH  060%=      5-min Rain = 0
KMNS 160950Z 17008KT 23/14 A3001 RMK A01 T02260136  RH  059%=      5-min Rain = 0
KMNS 160955Z 16008KT 23/14 A3001 RMK A01 T02270136  RH  059%=      5-min Rain = 0
KMNS 161000Z 16008KT 23/14 A3001 RMK A01 T02250136  RH  059%=      5-min Rain = 0
KMNS 161005Z 17008KT 23/14 A3001 RMK A01 T02250136  RH  060%=      5-min Rain = 0
KMNS 161010Z 16006KT 22/14 A3002 RMK A01 T02240137  RH  060%=      5-min Rain = 0
KMNS 161015Z 17006KT 22/14 A3002 RMK A01 T02230137  RH  061%=      5-min Rain = 0
KMNS 161020Z 17007KT 22/14 A3002 RMK A01 T02210138  RH  062%=      5-min Rain = 0
KMNS 161025Z 17007KT 22/14 A3002 RMK A01 T02210138  RH  062%=      5-min Rain = 0
KMNS 161030Z 18006KT 22/14 A3002 RMK A01 T02210137  RH  062%=      5-min Rain = 0
KMNS 161035Z 18006KT 22/14 A3002 RMK A01 T02200137  RH  062%=      5-min Rain = 0
KMNS 161040Z 19005KT 22/14 A3002 RMK A01 T02180137  RH  063%=      5-min Rain = 0
KMNS 161045Z 20005KT 22/14 A3003 RMK A01 T02150137  RH  064%=      5-min Rain = 0
KMNS 161050Z 20005KT 21/14 A3003 RMK A01 T02130138  RH  065%=      5-min Rain = 0
KMNS 161055Z 19006KT 21/14 A3003 RMK A01 T02130138  RH  065%=      5-min Rain = 0
KMNS 161100Z 18006KT 21/14 A3003 RMK A01 T02120138  RH  065%=      5-min Rain = 0
KMNS 161105Z 18006KT 21/14 A3003 RMK A01 T02140139  RH  065%=      5-min Rain = 0
KMNS 161110Z 19006KT 21/14 A3003 RMK A01 T02120139  RH  065%=      5-min Rain = 0
KMNS 161115Z 19007KT 21/14 A3003 RMK A01 T02100139  RH  066%=      5-min Rain = 0
KMNS 161120Z 19007KT 21/14 A3003 RMK A01 T02120139  RH  066%=      5-min Rain = 0
KMNS 161125Z 20007KT 21/14 A3004 RMK A01 T02140140  RH  065%=      5-min Rain = 0
KMNS 161130Z 20007KT 22/14 A3004 RMK A01 T02160140  RH  065%=      5-min Rain = 0
KMNS 161135Z 20007KT 22/14 A3004 RMK A01 T02170140  RH  064%=      5-min Rain = 0
KMNS 161140Z 20006KT 21/14 A3004 RMK A01 T02140140  RH  065%=      5-min Rain = 0
KMNS 161145Z 19007KT 21/14 A3004 RMK A01 T02130140  RH  066%=      5-min Rain = 0
KMNS 161150Z 19008KT 21/14 A3004 RMK A01 T02140141  RH  066%=      5-min Rain = 0
KMNS 161155Z 20007KT 21/14 A3004 RMK A01 T02140142  RH  066%=      5-min Rain = 0
KMNS 161200Z 19008KT 22/14 A3004 RMK A01 T02170143  RH  066%=      5-min Rain = 0
KMNS 161205Z 18007KT 22/14 A3004 RMK A01 T02180143  RH  065%=      5-min Rain = 0
KMNS 161210Z 20006KT 22/14 A3005 RMK A01 T02200144  RH  065%=      5-min Rain = 0
KMNS 161215Z 20005KT 22/15 A3005 RMK A01 T02210145  RH  065%=      5-min Rain = 0
KMNS 161220Z 18006KT 22/15 A3005 RMK A01 T02220145  RH  064%=      5-min Rain = 0
KMNS 161225Z 19006KT 23/15 A3005 RMK A01 T02250145  RH  063%=      5-min Rain = 0
KMNS 161230Z 19006KT 23/15 A3005 RMK A01 T02260146  RH  063%=      5-min Rain = 0
KMNS 161235Z 20006KT 23/15 A3005 RMK A01 T02270146  RH  063%=      5-min Rain = 0
KMNS 161240Z 22006KT 23/15 A3005 RMK A01 T02280147  RH  063%=      5-min Rain = 0
KMNS 161245Z 20005KT 23/15 A3006 RMK A01 T02290148  RH  063%=      5-min Rain = 0
KMNS 161250Z 19007KT 23/15 A3005 RMK A01 T02300148  RH  062%=      5-min Rain = 0
KMNS 161255Z 19008KT 23/15 A3005 RMK A01 T02320149  RH  062%=      5-min Rain = 0
KMNS 161300Z 19008KT 23/15 A3005 RMK A01 T02330150  RH  062%=      5-min Rain = 0
KMNS 161305Z 20008KT 23/15 A3005 RMK A01 T02340151  RH  062%=      5-min Rain = 0
KMNS 161310Z 21008KT 24/15 A3006 RMK A01 T02370151  RH  061%=      5-min Rain = 0
KMNS 161315Z 21008KT 24/15 A3006 RMK A01 T02390151  RH  060%=      5-min Rain = 0
KMNS 161320Z 21009KT 24/15 A3006 RMK A01 T02410151  RH  060%=      5-min Rain = 0
KMNS 161325Z 21009KT 24/15 A3006 RMK A01 T02430151  RH  059%=      5-min Rain = 0
KMNS 161330Z 20009KT 25/15 A3006 RMK A01 T02450150  RH  058%=      5-min Rain = 0
KMNS 161335Z 21009KT 25/15 A3006 RMK A01 T02460150  RH  058%=      5-min Rain = 0
KMNS 161340Z 22008KT 25/15 A3006 RMK A01 T02480150  RH  057%=      5-min Rain = 0
KMNS 161345Z 23009KT 25/15 A3007 RMK A01 T02490150  RH  057%=      5-min Rain = 0
KMNS 161350Z 24009KT 25/15 A3007 RMK A01 T02490151  RH  057%=      5-min Rain = 0
KMNS 161355Z 24008KT 25/15 A3007 RMK A01 T02490151  RH  057%=      5-min Rain = 0
KMNS 161400Z 24007KT 25/15 A3008 RMK A01 T02510154  RH  057%=      5-min Rain = 0
KMNS 161405Z 23007KT 25/15 A3008 RMK A01 T02530153  RH  056%=      5-min Rain = 0
KMNS 161410Z 22008KT 26/15 A3008 RMK A01 T02560152  RH  055%=      5-min Rain = 0
KMNS 161415Z 21008KT 26/15 A3008 RMK A01 T02590152  RH  054%=      5-min Rain = 0
KMNS 161420Z 21010G15KT 26/15 A3007 RMK A01 T02630150  RH  052%=      5-min Rain = 0
KMNS 161425Z 21013G19KT 27/15 A3007 RMK A01 T02730148  RH  048%=      5-min Rain = 0
KMNS 161430Z 21015KT 27/15 A3007 RMK A01 T02720145  RH  048%=      5-min Rain = 0
KMNS 161435Z 21015G21KT 27/14 A3007 RMK A01 T02710144  RH  048%=      5-min Rain = 0
KMNS 161440Z 21014G20KT 27/15 A3007 RMK A01 T02710145  RH  048%=      5-min Rain = 0
KMNS 161445Z 20014KT 28/15 A3008 RMK A01 T02810146  RH  046%=      5-min Rain = 0
KMNS 161450Z 21011KT 29/15 A3008 RMK A01 T02850150  RH  046%=      5-min Rain = 0
KMNS 161455Z 22016G22KT 28/14 A3008 RMK A01 T02820144  RH  045%=      5-min Rain = 0
KMNS 161500Z 22016KT 28/15 A3008 RMK A01 T02800145  RH  046%=      5-min Rain = 0
KMNS 161505Z 21015KT 28/15 A3008 RMK A01 T02810146  RH  046%=      5-min Rain = 0
KMNS 161510Z 20014G19KT 29/15 A3008 RMK A01 T02920148  RH  044%=      5-min Rain = 0
KMNS 161515Z 21016G21KT 29/15 A3008 RMK A01 T02930145  RH  042%=      5-min Rain = 0
KMNS 161520Z 20014G19KT 29/15 A3008 RMK A01 T02930146  RH  043%=      5-min Rain = 0
KMNS 161525Z 20018G23KT 29/14 A3008 RMK A01 T02900143  RH  043%=      5-min Rain = 0
KMNS 161530Z 19018G24KT 30/15 A3008 RMK A01 T02960145  RH  041%=      5-min Rain = 0
KMNS 161535Z 20018G24KT 29/14 A3008 RMK A01 T02890142  RH  043%=      5-min Rain = 0
KMNS 161540Z 19017G22KT 29/14 A3008 RMK A01 T02870143  RH  043%=      5-min Rain = 0
KMNS 161545Z 19017KT 29/14 A3008 RMK A01 T02870143  RH  043%=      5-min Rain = 0
KMNS 161550Z 20016KT 29/14 A3008 RMK A01 T02890142  RH  042%=      5-min Rain = 0
KMNS 161555Z 19016G22KT 29/14 A3008 RMK A01 T02930143  RH  042%=      5-min Rain = 0
KMNS 161600Z 19014G19KT 30/14 A3008 RMK A01 T02980141  RH  040%=      5-min Rain = 0
KMNS 161605Z 18018G23KT 29/14 A3008 RMK A01 T02940138  RH  040%=      5-min Rain = 0
KMNS 161610Z 18015KT 29/14 A3008 RMK A01 T02920140  RH  041%=      5-min Rain = 0
KMNS 161615Z 18017G23KT 29/14 A3008 RMK A01 T02910138  RH  041%=      5-min Rain = 0
KMNS 161620Z 18014G19KT 29/14 A3008 RMK A01 T02930139  RH  041%=      5-min Rain = 0
KMNS 161625Z 18015G23KT 29/14 A3008 RMK A01 T02940137  RH  040%=      5-min Rain = 0
KMNS 161630Z 18012G18KT 30/14 A3009 RMK A01 T02970140  RH  040%=      5-min Rain = 0
KMNS 161635Z 19014KT 30/14 A3009 RMK A01 T02990138  RH  039%=      5-min Rain = 0
KMNS 161640Z 18013G18KT 30/14 A3009 RMK A01 T02990141  RH  040%=      5-min Rain = 0
KMNS 161645Z 18013KT 30/14 A3009 RMK A01 T02980142  RH  040%=      5-min Rain = 0
KMNS 161650Z 19013KT 30/14 A3009 RMK A01 T03010141  RH  039%=      5-min Rain = 0
KMNS 161655Z 19015KT 30/14 A3009 RMK A01 T03030138  RH  038%=      5-min Rain = 0
KMNS 161700Z 19014G19KT 31/14 A3009 RMK A01 T03070136  RH  037%=      5-min Rain = 0
KMNS 161705Z 20014G19KT 31/13 A3009 RMK A01 T03080133  RH  036%=      5-min Rain = 0
KMNS 161710Z 19013G18KT 31/13 A3009 RMK A01 T03080132  RH  035%=      5-min Rain = 0
KMNS 161715Z 19015KT 31/13 A3009 RMK A01 T03100131  RH  035%=      5-min Rain = 0
KMNS 161720Z 19013KT 31/13 A3009 RMK A01 T03110133  RH  035%=      5-min Rain = 0
KMNS 161725Z 19012G17KT 31/13 A3009 RMK A01 T03120133  RH  035%=      5-min Rain = 0
KMNS 161730Z 19014KT 31/13 A3009 RMK A01 T03140133  RH  035%=      5-min Rain = 0
KMNS 161735Z 19012KT 32/13 A3009 RMK A01 T03160134  RH  034%=      5-min Rain = 0
KMNS 161740Z 19015KT 32/13 A3009 RMK A01 T03160131  RH  034%=      5-min Rain = 0
KMNS 161745Z 20015KT 32/13 A3009 RMK A01 T03180130  RH  033%=      5-min Rain = 0
KMNS 161750Z 19015KT 32/13 A3009 RMK A01 T03160127  RH  033%=      5-min Rain = 0
KMNS 161755Z 19012KT 32/13 A3009 RMK A01 T03200129  RH  033%=      5-min Rain = 0
KMNS 161800Z 20011KT 32/13 A3009 RMK A01 T03240131  RH  032%=      5-min Rain = 0
KMNS 161805Z 18013KT 33/13 A3009 RMK A01 T03250131  RH  032%=      5-min Rain = 0
KMNS 161810Z 19013KT 33/13 A3009 RMK A01 T03260131  RH  032%=      5-min Rain = 0
KMNS 161815Z 19012G17KT 33/13 A3009 RMK A01 T03300130  RH  031%=      5-min Rain = 0
KMNS 161820Z 17011G16KT 33/13 A3008 RMK A01 T03300129  RH  031%=      5-min Rain = 0
KMNS 161825Z 19012G18KT 33/13 A3008 RMK A01 T03340130  RH  030%=      5-min Rain = 0
KMNS 161830Z 18013KT 34/13 A3008 RMK A01 T03360130  RH  030%=      5-min Rain = 0
KMNS 161835Z 20013KT 33/13 A3008 RMK A01 T03310126  RH  030%=      5-min Rain = 0
KMNS 161840Z 18013G18KT 33/13 A3008 RMK A01 T03310127  RH  030%=      5-min Rain = 0
KMNS 161845Z 18013G19KT 33/12 A3008 RMK A01 T03280123  RH  030%=      5-min Rain = 0
KMNS 161850Z 19011KT 33/13 A3008 RMK A01 T03330128  RH  030%=      5-min Rain = 0
KMNS 161855Z 19013KT 34/12 A3007 RMK A01 T03400124  RH  028%=      5-min Rain = 0
KMNS 161900Z 20014G19KT 35/12 A3007 RMK A01 T03450124  RH  027%=      5-min Rain = 0
KMNS 161905Z 19012G17KT 35/13 A3007 RMK A01 T03460126  RH  028%=      5-min Rain = 0
KMNS 161910Z 18012G18KT 35/13 A3007 RMK A01 T03510126  RH  027%=      5-min Rain = 0
KMNS 161915Z 20013KT 35/12 A3006 RMK A01 T03510122  RH  026%=      5-min Rain = 0
KMNS 161920Z 18013G20KT 35/13 A3006 RMK A01 T03510125  RH  027%=      5-min Rain = 0
KMNS 161925Z 18012G18KT 35/13 A3006 RMK A01 T03510125  RH  027%=      5-min Rain = 0
KMNS 161930Z 19011G17KT 35/12 A3006 RMK A01 T03480124  RH  027%=      5-min Rain = 0
KMNS 161935Z 19013G19KT 36/12 A3006 RMK A01 T03550118  RH  025%=      5-min Rain = 0
KMNS 161940Z 18013G19KT 35/12 A3006 RMK A01 T03540116  RH  025%=      5-min Rain = 0
KMNS 161945Z 17011G16KT 35/12 A3006 RMK A01 T03530119  RH  025%=      5-min Rain = 0
KMNS 161950Z 18011G16KT 35/12 A3005 RMK A01 T03510120  RH  026%=      5-min Rain = 0
KMNS 161955Z 18011G18KT 35/12 A3005 RMK A01 T03540119  RH  025%=      5-min Rain = 0
KMNS 162000Z 20012G22KT 36/12 A3005 RMK A01 T03560120  RH  025%=      5-min Rain = 0
KMNS 162005Z 19012G17KT 36/12 A3005 RMK A01 T03570121  RH  025%=      5-min Rain = 0
KMNS 162010Z 19011G16KT 36/12 A3004 RMK A01 T03560119  RH  025%=      5-min Rain = 0
KMNS 162015Z 17010G18KT 36/12 A3004 RMK A01 T03580117  RH  024%=      5-min Rain = 0
KMNS 162020Z 19012G17KT 36/12 A3004 RMK A01 T03590120  RH  025%=      5-min Rain = 0
KMNS 162025Z 18011G23KT 36/12 A3004 RMK A01 T03570118  RH  025%=      5-min Rain = 0
KMNS 162030Z 16010G16KT 36/12 A3004 RMK A01 T03600115  RH  024%=      5-min Rain = 0
KMNS 162035Z 15008G14KT 36/11 A3003 RMK A01 T03620113  RH  023%=      5-min Rain = 0
KMNS 162040Z 20007G16KT 36/11 A3003 RMK A01 T03640114  RH  023%=      5-min Rain = 0
KMNS 162045Z 21009G15KT 36/12 A3003 RMK A01 T03600117  RH  024%=      5-min Rain = 0
KMNS 162050Z 17013G20KT 36/11 A3003 RMK A01 T03610110  RH  023%=      5-min Rain = 0
KMNS 162055Z 17011KT 36/11 A3002 RMK A01 T03630111  RH  023%=      5-min Rain = 0
KMNS 162100Z 18013G18KT 36/11 A3002 RMK A01 T03640107  RH  022%=      5-min Rain = 0
KMNS 162105Z 17010G21KT 36/11 A3002 RMK A01 T03610107  RH  022%=      5-min Rain = 0
KMNS 162110Z 17013G21KT 36/11 A3002 RMK A01 T03620109  RH  022%=      5-min Rain = 0
KMNS 162115Z 18012KT 36/11 A3002 RMK A01 T03600108  RH  022%=      5-min Rain = 0
KMNS 162120Z 17013G20KT 36/11 A3001 RMK A01 T03630110  RH  022%=      5-min Rain = 0
KMNS 162125Z 18015G22KT 36/11 A3001 RMK A01 T03620107  RH  022%=      5-min Rain = 0
KMNS 162130Z 18011G19KT 36/11 A3001 RMK A01 T03600107  RH  022%=      5-min Rain = 0
KMNS 162135Z 18011G17KT 37/11 A3001 RMK A01 T03660107  RH  022%=      5-min Rain = 0
KMNS 162140Z 17011G16KT 37/11 A3001 RMK A01 T03670107  RH  022%=      5-min Rain = 0
KMNS 162145Z 16013G20KT 36/10 A30 RMK A01 T03630104  RH  022%=      5-min Rain = 0
KMNS 162150Z 18013G21KT 36/11 A30 RMK A01 T03640107  RH  022%=      5-min Rain = 0
KMNS 162155Z 17013G20KT 36/11 A30 RMK A01 T03620108  RH  022%=      5-min Rain = 0
KMNS 162200Z 16012G17KT 36/11 A30 RMK A01 T03610107  RH  022%=      5-min Rain = 0
KMNS 162205Z 17013G19KT 36/11 A30 RMK A01 T03610106  RH  022%=      5-min Rain = 0
KMNS 162210Z 17011KT 36/11 A30 RMK A01 T03610107  RH  022%=      5-min Rain = 0
KMNS 162215Z 16011G16KT 36/11 A2999 RMK A01 T03620108  RH  022%=      5-min Rain = 0
KMNS 162220Z 15014G19KT 36/11 A2999 RMK A01 T03580108  RH  023%=      5-min Rain = 0
KMNS 162225Z 15015G22KT 36/11 A2999 RMK A01 T03600111  RH  023%=      5-min Rain = 0
KMNS 162230Z 16013G19KT 36/11 A2999 RMK A01 T03580111  RH  023%=      5-min Rain = 0
KMNS 162235Z 16015G22KT 36/11 A2999 RMK A01 T03580111  RH  023%=      5-min Rain = 0
KMNS 162240Z 17013G19KT 36/11 A2999 RMK A01 T03620112  RH  023%=      5-min Rain = 0
KMNS 162245Z 17014G21KT 36/11 A2998 RMK A01 T03580109  RH  023%=      5-min Rain = 0
KMNS 162250Z 16014G20KT 36/11 A2998 RMK A01 T03570110  RH  023%=      5-min Rain = 0
KMNS 162255Z 16014G21KT 36/11 A2998 RMK A01 T03560108  RH  023%=      5-min Rain = 0
KMNS 162300Z 17012KT 36/11 A2998 RMK A01 T03560108  RH  023%=      5-min Rain = 0
KMNS 162305Z 16010G15KT 36/11 A2998 RMK A01 T03590108  RH  023%=      5-min Rain = 0
KMNS 162310Z 16013G20KT 36/11 A2998 RMK A01 T03570106  RH  023%=      5-min Rain = 0
KMNS 162315Z 16013G20KT 36/11 A2998 RMK A01 T03560105  RH  023%=      5-min Rain = 0
KMNS 162320Z 17012KT 36/10 A2998 RMK A01 T03570102  RH  022%=      5-min Rain = 0
KMNS 162325Z 15013G19KT 36/10 A2998 RMK A01 T03560100  RH  022%=      5-min Rain = 0
KMNS 162330Z 16012G18KT 36/10 A2998 RMK A01 T03560099  RH  022%=      5-min Rain = 0
KMNS 162335Z 16011G16KT 35/10 A2998 RMK A01 T03540098  RH  022%=      5-min Rain = 0
KMNS 162340Z 15012G18KT 35/10 A2998 RMK A01 T03540097  RH  022%=      5-min Rain = 0
KMNS 162345Z 17015G21KT 35/09 A2998 RMK A01 T03500094  RH  022%=      5-min Rain = 0
KMNS 162350Z 15012G19KT 35/10 A2998 RMK A01 T03510100  RH  022%=      5-min Rain = 0
KMNS 162355Z 15012KT 35/10 A2998 RMK A01 T03520099  RH  022%=      5-min Rain = 0
KMNS 170000Z 16013G18KT 35/10 A2998 RMK A01 T03500099  RH  022%=      5-min Rain = 0
KMNS 170005Z 16011G17KT 35/10 A2998 RMK A01 T03500098  RH  022%=      5-min Rain = 0
KMNS 170010Z 16011G16KT 35/10 A2998 RMK A01 T03480096  RH  022%=      5-min Rain = 0
KMNS 170015Z 16013G19KT 35/10 A2998 RMK A01 T03470096  RH  022%=      5-min Rain = 0
KMNS 170020Z 16012G17KT 35/10 A2998 RMK A01 T03460096  RH  022%=      5-min Rain = 0
KMNS 170025Z 16013G18KT 34/09 A2999 RMK A01 T03440094  RH  022%=      5-min Rain = 0
KMNS 170030Z 16012G17KT 34/09 A2999 RMK A01 T03430094  RH  022%=      5-min Rain = 0
KMNS 170035Z 15011KT 34/10 A2999 RMK A01 T03430095  RH  023%=      5-min Rain = 0
KMNS 170040Z 15012KT 34/09 A2999 RMK A01 T03420093  RH  023%=      5-min Rain = 0
KMNS 170045Z 15011KT 34/09 A2999 RMK A01 T03410093  RH  023%=      5-min Rain = 0
KMNS 170050Z 15010G15KT 34/09 A2999 RMK A01 T03400092  RH  023%=      5-min Rain = 0
KMNS 170055Z 16012G18KT 34/09 A2999 RMK A01 T03380089  RH  022%=      5-min Rain = 0
KMNS 170100Z 16011KT 34/09 A2999 RMK A01 T03370087  RH  022%=      5-min Rain = 0
KMNS 170105Z 15011KT 34/09 A2999 RMK A01 T03360089  RH  023%=      5-min Rain = 0
KMNS 170110Z 15012KT 33/09 A2999 RMK A01 T03330090  RH  023%=      5-min Rain = 0
KMNS 170115Z 14012G18KT 33/09 A2999 RMK A01 T03310091  RH  023%=      5-min Rain = 0
KMNS 170120Z 14013KT 33/09 A30 RMK A01 T03290088  RH  023%=      5-min Rain = 0
KMNS 170125Z 14011KT 33/09 A30 RMK A01 T03270090  RH  024%=      5-min Rain = 0
KMNS 170130Z 14011KT 33/09 A30 RMK A01 T03250091  RH  024%=      5-min Rain = 0
KMNS 170135Z 14011KT 32/09 A30 RMK A01 T03230091  RH  025%=      5-min Rain = 0
KMNS 170140Z 14011G16KT 32/09 A30 RMK A01 T03200091  RH  025%=      5-min Rain = 0
KMNS 170145Z 15011KT 32/09 A30 RMK A01 T03180091  RH  025%=      5-min Rain = 0
KMNS 170150Z 15011KT 32/09 A30 RMK A01 T03150092  RH  026%=      5-min Rain = 0
KMNS 170155Z 15010KT 31/09 A30 RMK A01 T03130094  RH  027%=      5-min Rain = 0
KMNS 170200Z 14009KT 31/10 A3001 RMK A01 T03090095  RH  027%=      5-min Rain = 0
KMNS 170205Z 14008KT 31/10 A3001 RMK A01 T03070096  RH  028%=      5-min Rain = 0
KMNS 170210Z 14008KT 31/10 A3001 RMK A01 T03050096  RH  028%=      5-min Rain = 0
KMNS 170215Z 14007KT 30/10 A3001 RMK A01 T03020097  RH  029%=      5-min Rain = 0
KMNS 170220Z 14006KT 30/10 A3001 RMK A01 T02980098  RH  030%=      5-min Rain = 0
KMNS 170225Z 14007KT 30/10 A3002 RMK A01 T02950098  RH  030%=      5-min Rain = 0
KMNS 170230Z 14007KT 29/10 A3002 RMK A01 T02930098  RH  031%=      5-min Rain = 0
KMNS 170235Z 13007KT 29/10 A3002 RMK A01 T02900098  RH  031%=      5-min Rain = 0
KMNS 170240Z 13007KT 29/10 A3002 RMK A01 T02890097  RH  031%=      5-min Rain = 0
KMNS 170245Z 13007KT 29/10 A3002 RMK A01 T02870098  RH  032%=      5-min Rain = 0
KMNS 170250Z 14007KT 29/10 A3003 RMK A01 T02850098  RH  032%=      5-min Rain = 0
KMNS 170255Z 14006KT 28/10 A3003 RMK A01 T02820098  RH  033%=      5-min Rain = 0
KMNS 170300Z 13006KT 28/10 A3003 RMK A01 T02800098  RH  033%=      5-min Rain = 0
KMNS 170305Z 13006KT 28/10 A3003 RMK A01 T02790097  RH  033%=      5-min Rain = 0
KMNS 170310Z 13006KT 27/10 A3003 RMK A01 T02740099  RH  034%=      5-min Rain = 0
KMNS 170315Z 13006KT 27/10 A3003 RMK A01 T02730098  RH  034%=      5-min Rain = 0
KMNS 170320Z 13007KT 28/10 A3004 RMK A01 T02760096  RH  033%=      5-min Rain = 0
KMNS 170325Z 13008KT 28/10 A3004 RMK A01 T02770095  RH  033%=      5-min Rain = 0
KMNS 170330Z 13008KT 28/10 A3004 RMK A01 T02770095  RH  033%=      5-min Rain = 0
KMNS 170335Z 13008KT 28/10 A3004 RMK A01 T02780095  RH  033%=      5-min Rain = 0
KMNS 170340Z 13008KT 28/10 A3004 RMK A01 T02780096  RH  033%=      5-min Rain = 0
KMNS 170345Z 13007KT 28/10 A3005 RMK A01 T02770096  RH  033%=      5-min Rain = 0
KMNS 170350Z 13007KT 28/10 A3005 RMK A01 T02750096  RH  034%=      5-min Rain = 0
KMNS 170355Z 14006KT 27/10 A3005 RMK A01 T02730098  RH  034%=      5-min Rain = 0
KMNS 170400Z 14006KT 27/10 A3005 RMK A01 T02700100  RH  035%=      5-min Rain = 0
KMNS 170405Z 13007KT 27/10 A3005 RMK A01 T02690099  RH  036%=      5-min Rain = 0
KMNS 170410Z 13007KT 27/10 A3005 RMK A01 T02690099  RH  036%=      5-min Rain = 0
KMNS 170415Z 13007KT 27/10 A3005 RMK A01 T02690100  RH  036%=      5-min Rain = 0
KMNS 170420Z 13007KT 27/10 A3005 RMK A01 T02690100  RH  036%=      5-min Rain = 0
KMNS 170425Z 14007KT 27/10 A3005 RMK A01 T02680101  RH  036%=      5-min Rain = 0
KMNS 170430Z 14006KT 27/10 A3005 RMK A01 T02660102  RH  037%=      5-min Rain = 0
KMNS 170435Z 14006KT 27/10 A3005 RMK A01 T02650103  RH  037%=      5-min Rain = 0
KMNS 170440Z 14006KT 26/10 A3005 RMK A01 T02640104  RH  038%=      5-min Rain = 0
KMNS 170445Z 14007KT 27/11 A3005 RMK A01 T02650105  RH  038%=      5-min Rain = 0
KMNS 170450Z 14006KT 27/11 A3005 RMK A01 T02660106  RH  038%=      5-min Rain = 0
KMNS 170455Z 14006KT 27/11 A3005 RMK A01 T02660106  RH  038%=      5-min Rain = 0

Page generated in 0.0094 seconds.